Forestgrove, Montana
Current Conditions -  °F | °C
As of 10:20 AM on Sunday 21 Dec 2014 (Local Time) from KMVH Reporting Station
Broken Clouds Broken Clouds  
Wind Chill: 34°   Ceiling: 3400
Heat Index: 43°   Visibility: 9mi
Dew Point: 32°   Wind: 21mph
Humidity: 66%   Direction: 290°WNW
Pressure: 29.37"   Gusts: 44mph
Location:  46.99°N, 109.08°W
Report Text: KMVH 211720Z AUTO 29018G38KT 9SM FEW025 SCT029 BKN034 06/00 A2937 RMK A01
Loading
Personal Weather Stations






























Interactive Weather Map New forecast layout! Learn more

10-Day Weather Forecast

Advertisements
Track Severe Weather on mobile